createdAt,value
2023-03-22T00:02:04.714Z,101689.19
2023-03-22T00:07:07.565Z,101686.44
2023-03-22T00:12:12.745Z,101698.75
2023-03-22T00:17:16.012Z,101688.81
2023-03-22T00:22:37.468Z,101688.00
2023-03-22T00:27:40.194Z,101681.25
2023-03-22T00:32:43.136Z,101700.34
2023-03-22T00:37:45.853Z,101682.41
2023-03-22T00:42:48.560Z,101688.03
2023-03-22T00:47:51.450Z,101677.50
2023-03-22T00:52:54.482Z,101684.16
2023-03-22T00:57:57.572Z,101671.66
2023-03-22T01:03:04.518Z,101675.59
2023-03-22T01:08:08.836Z,101677.53
2023-03-22T01:13:12.696Z,101679.00
2023-03-22T01:18:15.627Z,101670.88
2023-03-22T01:23:18.465Z,101654.44
2023-03-22T01:28:21.186Z,101666.22
2023-03-22T01:33:23.961Z,101675.56
2023-03-22T01:38:27.509Z,101666.59
2023-03-22T01:43:34.174Z,101669.94
2023-03-22T01:48:46.411Z,101673.38
2023-03-22T01:53:58.178Z,101683.06
2023-03-22T01:59:05.879Z,101675.25
2023-03-22T02:04:34.696Z,101685.75
2023-03-22T02:09:41.915Z,101682.00
2023-03-22T02:15:07.221Z,101687.97
2023-03-22T02:20:34.189Z,101692.06
2023-03-22T02:25:41.675Z,101690.03
2023-03-22T02:30:59.581Z,101699.31
2023-03-22T02:36:25.061Z,101697.66
2023-03-22T02:41:50.946Z,101704.84
2023-03-22T02:47:26.955Z,101700.13
2023-03-22T02:52:39.649Z,101701.78
2023-03-22T02:57:53.061Z,101708.25
2023-03-22T03:03:00.468Z,101712.75
2023-03-22T03:08:03.739Z,101706.56
2023-03-22T03:13:16.637Z,101708.72
2023-03-22T03:18:23.749Z,101715.50
2023-03-22T03:23:38.089Z,101713.41
2023-03-22T03:28:59.276Z,101709.88
2023-03-22T03:34:20.031Z,101707.34
2023-03-22T03:39:25.128Z,101705.63
2023-03-22T03:44:28.469Z,101711.16
2023-03-22T03:49:31.532Z,101710.16
2023-03-22T03:54:34.425Z,101713.22
2023-03-22T03:59:39.398Z,101700.47
2023-03-22T04:04:51.839Z,101709.72
2023-03-22T04:09:55.984Z,101707.28
2023-03-22T04:15:03.290Z,101713.50
2023-03-22T04:20:11.417Z,101708.25
2023-03-22T04:25:18.469Z,101709.66
2023-03-22T04:30:36.573Z,101702.56
2023-03-22T04:35:59.832Z,101704.47
2023-03-22T04:41:10.787Z,101702.13
2023-03-22T04:46:18.644Z,101699.59
2023-03-22T04:51:28.425Z,101706.47
2023-03-22T04:56:45.663Z,101695.91
2023-03-22T05:01:51.816Z,101699.59
2023-03-22T05:06:59.662Z,101696.13
2023-03-22T05:12:11.497Z,101690.72
2023-03-22T05:17:26.478Z,101690.28
2023-03-22T05:22:34.882Z,101681.97
2023-03-22T05:27:39.296Z,101683.56
2023-03-22T05:33:04.769Z,101677.53
2023-03-22T05:38:13.278Z,101670.41
2023-03-22T05:43:21.269Z,101662.75
2023-03-22T05:48:26.124Z,101669.94
2023-03-22T05:53:29.882Z,101666.72
2023-03-22T05:58:37.578Z,101657.75
2023-03-22T06:03:41.076Z,101661.13
2023-03-22T06:09:07.251Z,101653.56
2023-03-22T06:14:19.448Z,101648.03
2023-03-22T06:19:51.406Z,101648.88
2023-03-22T06:24:55.705Z,101637.16
2023-03-22T06:30:08.861Z,101629.16
2023-03-22T06:35:25.277Z,101624.75
2023-03-22T06:40:28.359Z,101620.09
2023-03-22T06:45:33.760Z,101614.09
2023-03-22T06:50:41.236Z,101608.34
2023-03-22T06:55:48.530Z,101597.19
2023-03-22T07:00:58.594Z,101592.88
2023-03-22T07:06:08.501Z,101588.91
2023-03-22T07:11:14.555Z,101578.88
2023-03-22T07:16:20.161Z,101544.16
2023-03-22T07:21:33.624Z,101559.38
2023-03-22T07:26:41.531Z,101568.88
2023-03-22T07:31:47.536Z,101538.22
2023-03-22T07:37:04.366Z,101554.97
2023-03-22T07:42:07.755Z,101560.25
2023-03-22T07:47:45.852Z,101524.34
2023-03-22T07:52:48.557Z,101550.72
2023-03-22T07:57:51.649Z,101547.63
2023-03-22T08:02:54.958Z,101539.03
2023-03-22T08:08:14.645Z,101527.81
2023-03-22T08:13:17.656Z,101527.75
2023-03-22T08:18:20.587Z,101524.09
2023-03-22T08:23:38.493Z,101517.78
2023-03-22T08:29:00.086Z,101513.69
2023-03-22T08:34:06.258Z,101518.09
2023-03-22T08:39:09.939Z,101511.72
2023-03-22T08:44:35.288Z,101505.22
2023-03-22T08:49:39.650Z,101501.00
2023-03-22T08:54:52.876Z,101500.78
2023-03-22T09:00:17.796Z,101497.66
2023-03-22T09:05:29.364Z,101482.22
2023-03-22T09:10:32.969Z,101483.72
2023-03-22T09:15:36.214Z,101485.28
2023-03-22T09:20:52.912Z,101491.56
2023-03-22T09:26:05.512Z,101485.56
2023-03-22T09:31:10.192Z,101489.47
2023-03-22T09:36:14.724Z,101485.56
2023-03-22T09:41:25.939Z,101482.44
2023-03-22T09:46:37.263Z,101470.25
2023-03-22T09:51:43.199Z,101469.38
2023-03-22T09:56:51.939Z,101459.19
2023-03-22T10:01:58.141Z,101459.53
2023-03-22T10:07:08.349Z,101457.41
2023-03-22T10:12:37.206Z,101450.22
2023-03-22T10:17:43.175Z,101459.63
2023-03-22T10:22:46.679Z,101447.47
2023-03-22T10:27:51.287Z,101450.94
2023-03-22T10:33:05.229Z,101434.72
2023-03-22T10:38:13.851Z,101429.88
2023-03-22T10:43:23.455Z,101425.97
2023-03-22T10:48:30.438Z,101426.94
2023-03-22T10:53:41.731Z,101420.63
2023-03-22T10:58:44.699Z,101423.22
2023-03-22T11:03:52.760Z,101412.88
2023-03-22T11:08:59.063Z,101414.59
2023-03-22T11:14:37.222Z,101409.50
2023-03-22T11:19:42.112Z,101401.34
2023-03-22T11:24:47.411Z,101394.31
2023-03-22T11:30:09.298Z,101397.59
2023-03-22T11:35:19.062Z,101398.72
2023-03-22T11:40:30.109Z,101397.50
2023-03-22T11:45:36.628Z,101394.81
2023-03-22T11:50:41.120Z,101397.69
2023-03-22T11:55:45.369Z,101386.97
2023-03-22T12:00:54.077Z,101390.09
2023-03-22T12:06:06.088Z,101405.09
2023-03-22T12:11:28.317Z,101391.88
2023-03-22T12:16:41.839Z,101387.47
2023-03-22T12:21:46.260Z,101381.56
2023-03-22T12:26:53.343Z,101393.59
2023-03-22T12:32:03.782Z,101389.72
2023-03-22T12:37:12.437Z,101388.81
2023-03-22T12:42:25.779Z,101388.94
2023-03-22T12:47:35.708Z,101380.81
2023-03-22T12:52:57.118Z,101383.25
2023-03-22T12:58:00.791Z,101384.34
2023-03-22T13:03:10.560Z,101387.38
2023-03-22T13:08:14.201Z,101389.75
2023-03-22T13:13:23.340Z,101391.03
2023-03-22T13:18:53.030Z,101386.31
2023-03-22T13:24:15.755Z,101381.06
2023-03-22T13:29:24.795Z,101381.00
2023-03-22T13:34:45.114Z,101369.94
2023-03-22T13:39:54.876Z,101375.56
2023-03-22T13:45:02.738Z,101356.94
2023-03-22T13:50:19.260Z,101351.97
2023-03-22T13:55:42.738Z,101352.69
2023-03-22T14:00:50.282Z,101333.72
2023-03-22T14:06:18.890Z,101347.47
2023-03-22T14:11:26.589Z,101344.84
2023-03-22T14:16:50.378Z,101332.34
